createdAt,value
2022-10-19T00:01:08.922Z,2.90
2022-10-19T00:06:26.273Z,2.88
2022-10-19T00:11:30.265Z,2.83
2022-10-19T00:16:37.105Z,2.85
2022-10-19T00:21:40.287Z,2.87
2022-10-19T00:26:43.616Z,2.83
2022-10-19T00:31:46.344Z,2.82
2022-10-19T00:36:49.160Z,2.80
2022-10-19T00:41:51.920Z,2.66
2022-10-19T00:46:54.775Z,2.83
2022-10-19T00:52:07.075Z,2.76
2022-10-19T00:57:10.617Z,2.72
2022-10-19T01:02:13.265Z,2.70
2022-10-19T01:07:16.357Z,2.76
2022-10-19T01:12:31.395Z,2.81
2022-10-19T01:17:52.500Z,2.78
2022-10-19T01:23:19.495Z,2.82
2022-10-19T01:28:52.522Z,2.86
2022-10-19T01:34:12.950Z,2.93
2022-10-19T01:39:53.246Z,2.93
2022-10-19T01:45:16.061Z,2.96
2022-10-19T01:50:36.308Z,2.98
2022-10-19T01:55:43.223Z,3.06
2022-10-19T02:00:46.956Z,3.04
2022-10-19T02:05:51.149Z,3.09
2022-10-19T02:10:54.326Z,3.11
2022-10-19T02:15:59.781Z,3.24
2022-10-19T02:21:06.067Z,3.27
2022-10-19T02:26:08.999Z,3.21
2022-10-19T02:31:11.793Z,3.17
2022-10-19T02:36:14.542Z,3.20
2022-10-19T02:41:40.166Z,3.12
2022-10-19T02:46:50.598Z,2.85
2022-10-19T02:51:58.939Z,2.81
2022-10-19T02:57:01.793Z,2.85
2022-10-19T03:02:04.438Z,3.12
2022-10-19T03:07:07.236Z,3.29
2022-10-19T03:12:10.623Z,3.44
2022-10-19T03:17:13.286Z,3.52
2022-10-19T03:22:16.067Z,3.64
2022-10-19T03:27:18.771Z,3.79
2022-10-19T03:32:21.869Z,4.11
2022-10-19T03:37:24.691Z,4.27
2022-10-19T03:42:27.866Z,4.46
2022-10-19T03:47:30.626Z,4.45
2022-10-19T03:52:33.325Z,4.50
2022-10-19T03:57:36.262Z,4.71
2022-10-19T04:02:39.189Z,4.86
2022-10-19T04:07:41.882Z,5.71
2022-10-19T04:12:44.643Z,6.40
2022-10-19T04:17:48.707Z,6.51
2022-10-19T04:22:53.572Z,6.55
2022-10-19T04:27:56.229Z,6.33
2022-10-19T04:32:58.993Z,6.09
2022-10-19T04:38:01.719Z,5.99
2022-10-19T04:43:05.311Z,6.04
2022-10-19T04:48:08.047Z,6.04
2022-10-19T04:53:10.814Z,5.89
2022-10-19T04:58:13.555Z,5.70
2022-10-19T05:03:16.634Z,5.71
2022-10-19T05:08:19.347Z,5.67
2022-10-19T05:13:22.183Z,5.64
2022-10-19T05:18:25.138Z,5.66
2022-10-19T05:23:27.975Z,5.56
2022-10-19T05:28:31.242Z,5.64
2022-10-19T05:33:34.471Z,5.46
2022-10-19T05:38:37.127Z,5.19
2022-10-19T05:43:41.513Z,5.02
2022-10-19T05:48:44.928Z,4.84
2022-10-19T05:53:47.902Z,4.53
2022-10-19T05:58:50.973Z,4.67
2022-10-19T06:03:55.423Z,4.67
2022-10-19T06:08:59.401Z,4.48
2022-10-19T06:14:03.464Z,4.51
2022-10-19T06:19:07.947Z,4.71
2022-10-19T06:24:11.543Z,4.88
2022-10-19T06:29:14.264Z,5.06
2022-10-19T06:34:17.171Z,5.05
2022-10-19T06:39:19.893Z,5.03
2022-10-19T06:44:22.932Z,5.12
2022-10-19T06:55:54.653Z,5.50
2022-10-19T07:00:58.623Z,5.63
2022-10-19T07:06:03.292Z,5.66
2022-10-19T07:11:08.677Z,5.60
2022-10-19T07:16:16.002Z,5.67
2022-10-19T07:21:23.651Z,5.75
2022-10-19T07:26:28.552Z,5.84
2022-10-19T07:31:31.705Z,5.92
2022-10-19T07:36:37.300Z,5.70
2022-10-19T07:41:40.364Z,5.58
2022-10-19T07:46:43.417Z,5.48
2022-10-19T07:51:47.180Z,5.54
2022-10-19T07:56:49.943Z,5.73
2022-10-19T08:01:54.606Z,5.99
2022-10-19T08:06:57.396Z,6.27
2022-10-19T08:12:00.121Z,6.63
2022-10-19T08:17:03.448Z,6.70
2022-10-19T08:22:06.102Z,6.64
2022-10-19T08:27:08.804Z,6.63
2022-10-19T08:32:11.523Z,6.66
2022-10-19T08:37:25.859Z,6.69
2022-10-19T08:42:49.965Z,6.76
2022-10-19T08:48:24.597Z,6.84
2022-10-19T08:53:42.000Z,6.81
2022-10-19T08:59:03.325Z,6.83
2022-10-19T09:04:24.661Z,6.95
2022-10-19T09:09:30.247Z,7.08
2022-10-19T09:15:04.641Z,7.17
2022-10-19T09:20:16.402Z,7.02
2022-10-19T09:25:23.060Z,6.50
2022-10-19T09:30:25.722Z,6.37
2022-10-19T09:35:32.786Z,6.22
2022-10-19T09:40:35.779Z,6.45
2022-10-19T09:45:53.331Z,6.43
2022-10-19T09:50:59.385Z,5.87
2022-10-19T09:56:09.576Z,5.73
2022-10-19T10:01:42.999Z,5.67
2022-10-19T10:06:48.665Z,5.33
2022-10-19T10:11:52.145Z,5.22
2022-10-19T10:17:17.653Z,5.08
2022-10-19T10:22:34.968Z,5.02
2022-10-19T10:27:39.324Z,4.68
2022-10-19T10:32:53.279Z,4.19
2022-10-19T10:38:24.480Z,3.87
2022-10-19T10:43:35.888Z,4.05
2022-10-19T10:48:53.403Z,3.84
2022-10-19T10:54:15.284Z,3.51
2022-10-19T10:59:28.254Z,3.45
2022-10-19T11:04:36.286Z,3.04
2022-10-19T11:09:43.886Z,2.73
2022-10-19T11:14:50.325Z,2.55
2022-10-19T11:19:53.991Z,2.44
2022-10-19T11:25:05.722Z,2.42
2022-10-19T11:30:10.517Z,2.26
2022-10-19T11:35:53.295Z,1.91
2022-10-19T11:41:39.625Z,1.52
2022-10-19T11:47:10.896Z,1.33
2022-10-19T11:53:01.401Z,1.36
2022-10-19T11:58:42.251Z,1.48
2022-10-19T12:04:04.478Z,1.89
2022-10-19T12:09:19.389Z,2.45
2022-10-19T12:14:27.245Z,2.88
2022-10-19T12:19:33.394Z,3.21
2022-10-19T12:24:36.292Z,3.45
2022-10-19T12:29:41.891Z,3.67
2022-10-19T12:34:55.957Z,3.85
2022-10-19T12:40:24.306Z,3.98
2022-10-19T12:45:41.808Z,4.08
2022-10-19T12:50:50.534Z,4.17
2022-10-19T12:56:03.646Z,4.25
2022-10-19T13:01:08.088Z,4.25
2022-10-19T13:06:18.334Z,4.32
2022-10-19T13:11:21.784Z,4.32
2022-10-19T13:16:30.543Z,4.36
2022-10-19T13:21:54.321Z,4.36
2022-10-19T13:27:03.230Z,4.43
2022-10-19T13:32:46.345Z,4.39
2022-10-19T13:38:17.047Z,4.35
2022-10-19T13:43:28.036Z,4.08
2022-10-19T13:48:57.301Z,4.14
2022-10-19T13:54:02.634Z,4.10
2022-10-19T13:59:05.225Z,4.10
2022-10-19T14:04:32.735Z,4.13
2022-10-19T14:10:03.441Z,4.08
2022-10-19T14:15:19.709Z,3.95
2022-10-19T14:20:31.814Z,4.03
2022-10-19T14:25:34.566Z,4.00
2022-10-19T14:30:37.790Z,3.85
2022-10-19T14:35:42.204Z,3.83
2022-10-19T14:40:44.852Z,3.77
2022-10-19T14:46:04.697Z,3.65
2022-10-19T14:51:35.880Z,3.66
2022-10-19T14:56:54.147Z,3.60
2022-10-19T15:01:59.762Z,3.64
2022-10-19T15:07:04.273Z,3.58
2022-10-19T15:12:15.291Z,3.52
2022-10-19T15:17:27.838Z,3.57
2022-10-19T15:22:33.697Z,3.54
2022-10-19T15:27:46.483Z,3.62
2022-10-19T15:33:00.812Z,3.70
2022-10-19T15:38:19.063Z,3.65
2022-10-19T15:43:31.040Z,3.52
2022-10-19T15:48:55.491Z,3.35
2022-10-19T15:54:00.414Z,3.36
2022-10-19T15:59:10.586Z,3.51
2022-10-19T16:04:13.442Z,3.63
2022-10-19T16:09:23.163Z,3.69
2022-10-19T16:14:27.045Z,3.70
2022-10-19T16:19:30.118Z,3.70
2022-10-19T16:24:33.066Z,3.63
2022-10-19T16:29:35.982Z,3.27
2022-10-19T16:34:38.716Z,2.91
2022-10-19T16:39:41.674Z,2.66
2022-10-19T16:44:44.751Z,2.40
2022-10-19T16:49:47.486Z,2.21
2022-10-19T16:54:50.313Z,2.13
2022-10-19T17:05:01.455Z,2.09
2022-10-19T17:10:05.828Z,2.14
2022-10-19T17:15:40.842Z,2.00
2022-10-19T17:20:35.372Z,1.94
2022-10-19T17:25:38.128Z,1.94
2022-10-19T17:30:43.645Z,2.01
2022-10-19T17:35:46.264Z,1.99
2022-10-19T17:40:48.896Z,1.95
2022-10-19T17:45:58.489Z,1.77
2022-10-19T17:51:03.225Z,1.58
2022-10-19T17:56:07.466Z,1.60
2022-10-19T18:01:11.134Z,1.54
2022-10-19T18:06:15.927Z,1.58
2022-10-19T18:11:21.432Z,1.46
2022-10-19T18:16:30.451Z,1.43
2022-10-19T18:21:40.626Z,1.35
2022-10-19T18:26:43.445Z,1.29
2022-10-19T18:31:51.756Z,1.25
2022-10-19T18:36:55.389Z,1.25
2022-10-19T18:41:58.084Z,1.21
2022-10-19T18:47:00.770Z,1.10
2022-10-19T18:52:03.449Z,1.16
2022-10-19T18:57:06.133Z,1.20
2022-10-19T19:02:17.173Z,1.09
2022-10-19T19:07:25.739Z,1.13
2022-10-19T19:12:28.460Z,1.11
2022-10-19T19:17:31.166Z,1.12
2022-10-19T19:22:34.490Z,1.16
2022-10-19T19:32:44.772Z,1.01
2022-10-19T19:37:47.475Z,1.03
2022-10-19T19:42:50.137Z,0.98
2022-10-19T19:47:53.040Z,0.87
2022-10-19T19:52:55.755Z,0.97
2022-10-19T19:57:58.421Z,0.93
2022-10-19T20:03:01.244Z,0.92
2022-10-19T20:08:03.977Z,0.87
2022-10-19T20:13:06.826Z,0.86
2022-10-19T20:18:10.029Z,0.83
2022-10-19T20:23:12.743Z,0.87
2022-10-19T20:28:15.428Z,0.79
2022-10-19T20:33:18.059Z,0.86
2022-10-19T20:38:20.699Z,0.87
2022-10-19T20:43:23.365Z,0.91
2022-10-19T20:48:26.062Z,0.90
2022-10-19T20:53:28.766Z,0.95
2022-10-19T20:58:31.935Z,1.00
2022-10-19T21:03:34.664Z,1.03
2022-10-19T21:08:38.034Z,1.00
2022-10-19T21:13:41.496Z,0.97
2022-10-19T21:18:45.455Z,0.91
2022-10-19T21:23:50.169Z,1.03
2022-10-19T21:28:53.617Z,1.15
2022-10-19T21:33:56.264Z,1.10
2022-10-19T21:38:58.975Z,1.17
2022-10-19T21:44:01.604Z,1.23
2022-10-19T21:49:04.397Z,1.39
2022-10-19T21:54:14.275Z,1.56
2022-10-19T21:59:17.697Z,1.77
2022-10-19T22:04:21.503Z,1.88
2022-10-19T22:09:24.242Z,2.01
2022-10-19T22:14:27.662Z,2.14
2022-10-19T22:19:30.245Z,2.42
2022-10-19T22:24:35.394Z,2.50
2022-10-19T22:29:38.109Z,2.66
2022-10-19T22:34:40.790Z,2.70
2022-10-19T22:39:43.485Z,2.81
2022-10-19T22:44:46.190Z,2.82
2022-10-19T22:49:48.858Z,2.73
2022-10-19T22:54:51.622Z,2.91
2022-10-19T22:59:54.287Z,2.93
2022-10-19T23:04:56.945Z,2.95
2022-10-19T23:09:59.764Z,2.92
2022-10-19T23:15:02.418Z,2.96
2022-10-19T23:20:06.521Z,2.94
2022-10-19T23:25:09.898Z,3.02
2022-10-19T23:30:12.594Z,3.00
2022-10-19T23:35:15.386Z,3.15
2022-10-19T23:40:18.056Z,2.98
2022-10-19T23:45:20.874Z,2.88
2022-10-19T23:50:23.434Z,2.81
2022-10-19T23:55:26.136Z,2.91
